createdAt,value
2022-08-17T00:01:51.285Z,99018.94
2022-08-17T00:04:22.834Z,99020.34
2022-08-17T00:06:50.660Z,99021.47
2022-08-17T00:09:18.718Z,99014.13
2022-08-17T00:12:03.955Z,99016.59
2022-08-17T00:14:36.573Z,99014.16
2022-08-17T00:17:05.161Z,99012.56
2022-08-17T00:19:33.008Z,99012.47
2022-08-17T00:22:35.151Z,99006.81
2022-08-17T00:24:52.225Z,99002.28
2022-08-17T00:27:19.491Z,99000.56
2022-08-17T00:29:46.942Z,99008.53
2022-08-17T00:33:11.985Z,99004.13
2022-08-17T00:35:05.913Z,99010.28
2022-08-17T00:37:33.030Z,99005.38
2022-08-17T00:40:00.206Z,99009.81
2022-08-17T00:42:30.974Z,99012.75
2022-08-17T00:44:58.807Z,99015.50
2022-08-17T00:47:26.105Z,99006.19
2022-08-17T00:49:54.066Z,99018.19
2022-08-17T00:52:25.003Z,99014.63
2022-08-17T00:54:54.471Z,99019.03
2022-08-17T00:57:24.706Z,99011.28
2022-08-17T01:00:03.180Z,99012.03
2022-08-17T01:02:42.253Z,99002.50
2022-08-17T01:05:19.842Z,99008.69
2022-08-17T01:07:51.128Z,99013.63
2022-08-17T01:11:00.423Z,99013.50
2022-08-17T01:13:11.291Z,99008.13
2022-08-17T01:15:46.130Z,99009.84
2022-08-17T01:18:17.267Z,99011.03
2022-08-17T01:20:49.469Z,99010.44
2022-08-17T01:23:23.398Z,99014.81
2022-08-17T01:25:53.072Z,99009.09
2022-08-17T01:28:52.418Z,99009.94
2022-08-17T01:31:15.022Z,99017.53
2022-08-17T01:33:42.320Z,99017.03
2022-08-17T01:36:10.191Z,99019.34
2022-08-17T01:38:38.559Z,99028.13
2022-08-17T01:41:12.644Z,99030.81
2022-08-17T01:43:51.410Z,99026.41
2022-08-17T01:46:27.203Z,99027.03
2022-08-17T01:48:57.685Z,99019.31
2022-08-17T01:51:32.191Z,99029.97
2022-08-17T01:54:06.382Z,99029.56
2022-08-17T01:56:36.909Z,99035.94
2022-08-17T01:59:04.592Z,99038.38
2022-08-17T02:01:34.690Z,99038.25
2022-08-17T02:04:02.998Z,99039.91
2022-08-17T02:06:52.512Z,99034.63
2022-08-17T02:09:25.666Z,99036.78
2022-08-17T02:11:57.974Z,99034.38
2022-08-17T02:14:28.138Z,99030.66
2022-08-17T02:16:56.217Z,99040.06
2022-08-17T02:19:23.322Z,99040.28
2022-08-17T02:21:52.485Z,99033.66
2022-08-17T02:25:00.159Z,99028.59
2022-08-17T02:27:12.260Z,99030.13
2022-08-17T02:29:41.567Z,99032.53
2022-08-17T02:32:27.175Z,99036.34
2022-08-17T02:34:59.387Z,99028.13
2022-08-17T02:37:28.070Z,99028.91
2022-08-17T02:39:58.830Z,99024.22
2022-08-17T02:42:35.608Z,99034.00
2022-08-17T02:45:06.063Z,99033.84
2022-08-17T02:47:33.809Z,99032.69
2022-08-17T02:50:00.776Z,99029.59
2022-08-17T02:52:53.270Z,99038.88
2022-08-17T02:55:30.693Z,99030.19
2022-08-17T02:57:57.903Z,99038.50
2022-08-17T03:00:34.003Z,99034.06
2022-08-17T03:03:05.686Z,99026.44
2022-08-17T03:05:35.247Z,99033.25
2022-08-17T03:08:03.209Z,99030.56
2022-08-17T03:10:30.210Z,99032.22
2022-08-17T03:12:57.204Z,99032.69
2022-08-17T03:15:28.936Z,99031.53
2022-08-17T03:17:56.850Z,99038.06
2022-08-17T03:20:25.333Z,99028.28
2022-08-17T03:22:55.712Z,99035.84
2022-08-17T03:25:32.760Z,99035.41
2022-08-17T03:28:01.833Z,99035.72
2022-08-17T03:30:29.664Z,99036.31
2022-08-17T03:33:03.992Z,99039.13
2022-08-17T03:35:36.692Z,99038.28
2022-08-17T03:38:05.200Z,99044.34
2022-08-17T03:40:36.970Z,99047.69
2022-08-17T03:43:23.445Z,99041.34
2022-08-17T03:46:19.296Z,99046.56
2022-08-17T03:49:15.466Z,99048.31
2022-08-17T03:52:03.474Z,99049.66
2022-08-17T03:54:49.020Z,99046.25
2022-08-17T03:57:16.921Z,99050.13
2022-08-17T03:59:47.736Z,99046.56
2022-08-17T04:02:22.426Z,99054.97
2022-08-17T04:04:54.065Z,99050.84
2022-08-17T04:07:27.647Z,99048.78
2022-08-17T04:09:55.162Z,99055.28
2022-08-17T04:12:23.329Z,99048.31
2022-08-17T04:14:52.731Z,99055.38
2022-08-17T04:17:27.402Z,99051.97
2022-08-17T04:19:57.021Z,99065.09
2022-08-17T04:22:32.508Z,99048.97
2022-08-17T04:25:16.856Z,99056.19
2022-08-17T04:27:44.197Z,99062.25
2022-08-17T04:30:14.832Z,99058.94
2022-08-17T04:33:05.915Z,99055.94
2022-08-17T04:35:41.279Z,99060.31
2022-08-17T04:38:12.407Z,99062.50
2022-08-17T04:41:01.114Z,99069.34
2022-08-17T04:43:29.333Z,99059.56
2022-08-17T04:46:06.464Z,99061.06
2022-08-17T04:48:40.374Z,99059.03
2022-08-17T04:51:11.248Z,99061.38
2022-08-17T04:53:44.419Z,99063.88
2022-08-17T04:56:16.954Z,99070.63
2022-08-17T04:58:51.122Z,99070.53
2022-08-17T05:01:24.822Z,99075.75
2022-08-17T05:03:56.304Z,99075.75
2022-08-17T05:06:26.782Z,99077.50
2022-08-17T05:08:54.842Z,99071.53
2022-08-17T05:11:24.144Z,99072.94
2022-08-17T05:13:51.719Z,99067.81
2022-08-17T05:16:20.611Z,99071.88
2022-08-17T05:18:48.219Z,99078.03
2022-08-17T05:21:15.943Z,99072.53
2022-08-17T05:23:43.570Z,99082.34
2022-08-17T05:26:25.738Z,99083.09
2022-08-17T05:29:00.551Z,99085.06
2022-08-17T05:31:32.230Z,99088.38
2022-08-17T05:34:02.659Z,99091.50
2022-08-17T05:36:41.902Z,99086.03
2022-08-17T05:39:16.215Z,99086.88
2022-08-17T05:41:48.404Z,99090.94
2022-08-17T05:44:16.775Z,99086.72
2022-08-17T05:46:51.059Z,99083.09
2022-08-17T05:49:25.496Z,99099.03
2022-08-17T05:52:21.017Z,99098.56
2022-08-17T05:54:54.571Z,99089.47
2022-08-17T05:57:29.323Z,99094.88
2022-08-17T06:00:20.951Z,99090.03
2022-08-17T06:02:53.838Z,99097.41
2022-08-17T06:05:33.290Z,99093.31
2022-08-17T06:08:08.864Z,99095.81
2022-08-17T06:10:59.325Z,99081.84
2022-08-17T06:13:59.089Z,99083.09
2022-08-17T06:16:36.271Z,99092.75
2022-08-17T06:19:21.279Z,99089.59
2022-08-17T06:21:52.641Z,99104.34
2022-08-17T06:24:34.356Z,99099.22
2022-08-17T06:27:33.655Z,99101.50
2022-08-17T06:30:21.964Z,99097.34
2022-08-17T06:32:52.518Z,99106.44
2022-08-17T06:35:32.023Z,99102.72
2022-08-17T06:38:38.110Z,99110.25
2022-08-17T06:41:22.593Z,99116.59
2022-08-17T06:44:49.957Z,99120.47
2022-08-17T06:47:30.024Z,99123.47
2022-08-17T06:50:40.397Z,99124.84
2022-08-17T06:53:29.836Z,99125.22
2022-08-17T06:56:20.967Z,99138.06
2022-08-17T06:58:50.892Z,99140.41
2022-08-17T07:01:25.262Z,99145.25
2022-08-17T07:04:12.358Z,99140.03
2022-08-17T07:06:51.405Z,99143.81
2022-08-17T07:09:34.116Z,99146.06
2022-08-17T07:12:16.449Z,99154.03
2022-08-17T07:14:46.228Z,99143.34
2022-08-17T07:17:18.463Z,99145.50
2022-08-17T07:19:48.106Z,99154.91
2022-08-17T07:22:30.565Z,99157.03
2022-08-17T07:25:20.867Z,99156.34
2022-08-17T07:27:54.502Z,99154.84
2022-08-17T07:30:31.271Z,99162.75
2022-08-17T07:33:17.882Z,99157.69
2022-08-17T07:35:50.167Z,99156.25
2022-08-17T07:38:26.876Z,99160.63
2022-08-17T07:40:57.902Z,99159.91
2022-08-17T07:43:31.181Z,99159.09
2022-08-17T07:46:23.138Z,99167.69
2022-08-17T07:48:53.786Z,99164.16
2022-08-17T07:51:32.277Z,99164.06
2022-08-17T07:54:23.230Z,99160.63
2022-08-17T07:57:02.010Z,99171.91
2022-08-17T07:59:35.899Z,99167.31
2022-08-17T08:02:15.741Z,99164.56
2022-08-17T08:05:01.107Z,99153.22
2022-08-17T08:07:38.463Z,99162.56
2022-08-17T08:10:11.101Z,99158.19
2022-08-17T08:12:45.301Z,99164.97
2022-08-17T08:15:19.160Z,99157.19
2022-08-17T08:17:59.381Z,99161.53
2022-08-17T08:21:04.194Z,99163.91
2022-08-17T08:23:37.282Z,99161.78
2022-08-17T08:26:26.468Z,99158.78
2022-08-17T08:29:18.759Z,99158.19
2022-08-17T08:31:58.903Z,99157.34
2022-08-17T08:35:03.755Z,99162.72
2022-08-17T08:37:40.536Z,99158.16
2022-08-17T08:40:13.633Z,99150.56
2022-08-17T08:42:56.721Z,99154.56
2022-08-17T08:45:33.033Z,99150.78
2022-08-17T08:48:46.043Z,99153.28
2022-08-17T08:51:16.497Z,99153.41
2022-08-17T08:54:09.509Z,99153.38
2022-08-17T08:57:33.487Z,99160.91
2022-08-17T09:00:35.940Z,99166.13
2022-08-17T09:03:08.486Z,99169.06
2022-08-17T09:06:06.831Z,99164.00
2022-08-17T09:09:18.794Z,99163.66
2022-08-17T09:12:17.625Z,99161.00
2022-08-17T09:15:12.815Z,99159.22
2022-08-17T09:18:08.601Z,99153.13
2022-08-17T09:20:54.000Z,99164.06
2022-08-17T09:23:37.282Z,99158.09
2022-08-17T09:26:23.827Z,99160.75
2022-08-17T09:29:01.592Z,99172.09
2022-08-17T09:31:35.601Z,99156.47
2022-08-17T09:34:33.050Z,99164.09
2022-08-17T09:37:23.245Z,99161.22
2022-08-17T09:40:05.625Z,99158.22
2022-08-17T09:42:50.087Z,99150.06
2022-08-17T09:45:23.152Z,99155.28
2022-08-17T09:47:53.955Z,99148.56
2022-08-17T09:51:03.462Z,99149.94
2022-08-17T09:53:15.617Z,99137.03
2022-08-17T09:55:45.783Z,99144.41
2022-08-17T09:58:30.697Z,99148.38
2022-08-17T10:01:08.739Z,99142.66
2022-08-17T10:04:03.657Z,99144.78
2022-08-17T10:06:37.934Z,99141.19
2022-08-17T10:09:40.280Z,99135.63
2022-08-17T10:12:17.078Z,99131.81
2022-08-17T10:14:55.141Z,99135.19
2022-08-17T10:17:35.264Z,99138.91
2022-08-17T10:20:29.803Z,99127.78
2022-08-17T10:23:21.690Z,99133.28
2022-08-17T10:26:17.069Z,99121.66
2022-08-17T10:28:53.268Z,99114.84
2022-08-17T10:31:36.262Z,99119.59
2022-08-17T10:34:12.413Z,99119.03
2022-08-17T10:36:46.257Z,99112.06
2022-08-17T10:39:36.287Z,99119.66
2022-08-17T10:42:37.436Z,99115.53
2022-08-17T10:45:26.397Z,99114.19
2022-08-17T10:48:04.747Z,99114.94
2022-08-17T10:50:44.439Z,99106.50
2022-08-17T10:53:33.799Z,99111.56
2022-08-17T10:56:13.242Z,99115.91
2022-08-17T10:58:50.777Z,99111.59
2022-08-17T11:01:18.460Z,99105.09
2022-08-17T11:03:56.844Z,99086.31
2022-08-17T11:06:32.903Z,99094.97
2022-08-17T11:09:21.532Z,99089.81
2022-08-17T11:12:37.665Z,99098.47
2022-08-17T11:15:44.029Z,99091.22
2022-08-17T11:18:30.671Z,99092.41
2022-08-17T11:21:21.985Z,99083.59
2022-08-17T11:24:01.573Z,99080.72
2022-08-17T11:26:32.104Z,99080.88
2022-08-17T11:29:09.078Z,99075.03
2022-08-17T11:31:46.627Z,99075.94
2022-08-17T11:34:15.937Z,99073.41
2022-08-17T11:37:06.927Z,99069.13
2022-08-17T11:40:06.429Z,99071.38
2022-08-17T11:42:45.064Z,99059.13
2022-08-17T11:45:34.144Z,99065.53
2022-08-17T11:48:40.545Z,99059.16
2022-08-17T11:51:35.609Z,99052.59
2022-08-17T11:54:31.586Z,99053.41
2022-08-17T11:56:59.045Z,99046.22
2022-08-17T11:59:36.472Z,99043.28
2022-08-17T12:02:29.864Z,99052.38
2022-08-17T12:05:17.103Z,99040.09
2022-08-17T12:08:15.419Z,99034.47
2022-08-17T12:10:54.581Z,99045.84
2022-08-17T12:13:30.523Z,99047.22
2022-08-17T12:16:03.561Z,99043.63
2022-08-17T12:18:39.134Z,99047.19
2022-08-17T12:21:23.419Z,99044.25
2022-08-17T12:24:06.605Z,99035.63
2022-08-17T12:26:36.907Z,99036.25
2022-08-17T12:29:18.301Z,99031.88
2022-08-17T12:32:03.818Z,99034.09
2022-08-17T12:34:42.949Z,99022.59
2022-08-17T12:37:27.866Z,99024.16
2022-08-17T12:40:04.183Z,99016.16
2022-08-17T12:42:37.307Z,99021.13
2022-08-17T12:45:07.538Z,99011.09
2022-08-17T12:47:38.079Z,99013.28
2022-08-17T12:50:28.955Z,99011.00
2022-08-17T12:53:01.685Z,99005.94
2022-08-17T12:55:36.786Z,99005.91
2022-08-17T12:58:04.413Z,99007.38
2022-08-17T13:00:36.467Z,99005.88
2022-08-17T13:03:19.404Z,99012.53
2022-08-17T13:05:52.730Z,99006.84
2022-08-17T13:08:24.650Z,99008.25
2022-08-17T13:11:01.566Z,99001.09
2022-08-17T13:13:34.894Z,99011.09
2022-08-17T13:16:03.670Z,99002.44
2022-08-17T13:18:55.287Z,99005.25
2022-08-17T13:21:22.961Z,99005.22
2022-08-17T13:24:01.920Z,98997.25
2022-08-17T13:26:48.689Z,99000.13
2022-08-17T13:29:39.283Z,98992.16
2022-08-17T13:32:13.254Z,98986.44
2022-08-17T13:34:51.385Z,98986.31
2022-08-17T13:37:36.656Z,98988.50
2022-08-17T13:40:29.161Z,98987.78
2022-08-17T13:42:57.723Z,98988.53
2022-08-17T13:45:39.132Z,98977.03
2022-08-17T13:48:12.507Z,98984.22
2022-08-17T13:50:55.428Z,98980.72
2022-08-17T13:53:32.784Z,98974.25
2022-08-17T13:56:34.933Z,98975.66
2022-08-17T13:59:12.368Z,98976.44
2022-08-17T14:01:51.121Z,98982.16
2022-08-17T14:04:24.925Z,98980.56
2022-08-17T14:07:03.708Z,98970.34
2022-08-17T14:09:37.764Z,98985.56
2022-08-17T14:12:17.050Z,98980.53
2022-08-17T14:14:49.650Z,98977.63
2022-08-17T14:17:23.075Z,98976.25
2022-08-17T14:19:51.350Z,98979.09
2022-08-17T14:22:32.116Z,98975.22
2022-08-17T14:25:01.828Z,98970.19
2022-08-17T14:27:32.014Z,98976.59
2022-08-17T14:29:59.538Z,98980.19
2022-08-17T14:32:30.209Z,98979.38
2022-08-17T14:35:00.067Z,98973.50
2022-08-17T14:37:28.688Z,98977.78
2022-08-17T14:40:01.089Z,98975.63
2022-08-17T14:42:32.505Z,98970.59
2022-08-17T14:45:06.200Z,98961.34
2022-08-17T14:47:55.677Z,98962.84
2022-08-17T14:50:22.729Z,98955.03
2022-08-17T14:52:50.972Z,98962.19
2022-08-17T14:55:20.884Z,98969.34
2022-08-17T14:57:48.590Z,98959.25
2022-08-17T15:00:16.661Z,98966.34
2022-08-17T15:02:53.846Z,98968.56
2022-08-17T15:05:31.774Z,98963.53
2022-08-17T15:08:02.650Z,98958.53
2022-08-17T15:10:30.397Z,98960.63
2022-08-17T15:12:57.965Z,98961.28
2022-08-17T15:15:25.890Z,98964.84
2022-08-17T15:17:53.330Z,98956.13
2022-08-17T15:20:23.922Z,98957.41
2022-08-17T15:22:55.559Z,98958.13
2022-08-17T15:25:25.382Z,98969.63
2022-08-17T15:27:52.936Z,98966.63
2022-08-17T15:30:20.254Z,98967.28
2022-08-17T15:32:54.557Z,98969.34
2022-08-17T15:35:27.271Z,98960.63
2022-08-17T15:38:06.511Z,98960.41
2022-08-17T15:40:41.217Z,98963.81
2022-08-17T15:43:13.521Z,98964.44
2022-08-17T15:45:43.258Z,98965.66
2022-08-17T15:48:10.455Z,98967.69
2022-08-17T15:50:38.023Z,98968.38
2022-08-17T15:53:07.433Z,98969.09
2022-08-17T15:55:38.415Z,98967.09
2022-08-17T15:58:05.948Z,98962.72
2022-08-17T16:00:35.430Z,98964.78
2022-08-17T16:04:01.182Z,98968.38
2022-08-17T16:06:09.877Z,98966.97
2022-08-17T16:08:38.670Z,98971.28
2022-08-17T16:11:05.818Z,98952.56
2022-08-17T16:13:33.055Z,98953.22
2022-08-17T16:16:00.043Z,98955.44
2022-08-17T16:18:31.127Z,98944.41
2022-08-17T16:21:22.965Z,98944.38
2022-08-17T16:23:52.109Z,98957.75
2022-08-17T16:26:22.955Z,98954.09
2022-08-17T16:28:51.086Z,98949.06
2022-08-17T16:31:18.075Z,98950.56
2022-08-17T16:34:16.284Z,98954.25
2022-08-17T16:36:32.579Z,98954.22
2022-08-17T16:39:00.823Z,98956.16
2022-08-17T16:41:46.140Z,98951.69
2022-08-17T16:44:15.862Z,98952.78
2022-08-17T16:46:45.542Z,98952.59
2022-08-17T16:49:36.119Z,98955.31
2022-08-17T16:52:03.445Z,98945.75
2022-08-17T16:54:30.409Z,98951.94
2022-08-17T16:56:59.539Z,98947.47
2022-08-17T16:59:39.414Z,98955.88
2022-08-17T17:02:15.504Z,98953.50
2022-08-17T17:04:54.569Z,98953.28
2022-08-17T17:07:50.968Z,98958.69
2022-08-17T17:10:36.184Z,98947.53
2022-08-17T17:13:09.696Z,98948.56
2022-08-17T17:15:52.437Z,98949.53
2022-08-17T17:18:23.239Z,98947.59
2022-08-17T17:20:57.105Z,98942.88
2022-08-17T17:23:56.472Z,98955.16
2022-08-17T17:26:39.035Z,98950.34
2022-08-17T17:29:24.127Z,98949.84
2022-08-17T17:32:09.685Z,98945.78
2022-08-17T17:34:42.092Z,98946.94
2022-08-17T17:37:20.375Z,98950.47
2022-08-17T17:39:53.840Z,98943.66
2022-08-17T17:42:28.385Z,98954.63
2022-08-17T17:45:12.192Z,98946.31
2022-08-17T17:47:39.343Z,98948.78
2022-08-17T17:50:09.130Z,98945.47
2022-08-17T17:52:42.386Z,98950.66
2022-08-17T17:55:27.738Z,98948.06
2022-08-17T17:58:06.627Z,98952.56
2022-08-17T18:01:18.482Z,98940.53
2022-08-17T18:04:04.658Z,98947.91
2022-08-17T18:06:46.572Z,98943.78
2022-08-17T18:09:34.002Z,98950.41
2022-08-17T18:12:10.364Z,98942.25
2022-08-17T18:15:01.639Z,98950.88
2022-08-17T18:17:29.850Z,98948.94
2022-08-17T18:19:57.107Z,98952.00
2022-08-17T18:22:24.990Z,98959.22
2022-08-17T18:24:56.448Z,98964.59
2022-08-17T18:27:37.310Z,98965.72
2022-08-17T18:30:13.652Z,98971.72
2022-08-17T18:32:43.725Z,98972.63
2022-08-17T18:35:10.944Z,98970.66
2022-08-17T18:37:43.577Z,98973.00
2022-08-17T18:40:16.513Z,98971.16
2022-08-17T18:43:23.347Z,98967.88
2022-08-17T18:45:53.740Z,98970.97
2022-08-17T18:48:29.443Z,98978.97
2022-08-17T18:51:04.930Z,98977.69
2022-08-17T18:53:35.122Z,98981.56
2022-08-17T18:56:23.398Z,98979.84
2022-08-17T18:58:58.543Z,98988.56
2022-08-17T19:01:41.957Z,98984.34
2022-08-17T19:04:34.139Z,98983.81
2022-08-17T19:07:10.934Z,98998.81
2022-08-17T19:09:48.714Z,98992.78
2022-08-17T19:12:38.295Z,98989.22
2022-08-17T19:15:09.415Z,98993.13
2022-08-17T19:18:02.759Z,98988.53
2022-08-17T19:20:35.906Z,98988.25
2022-08-17T19:23:14.157Z,98981.84
2022-08-17T19:25:48.580Z,98980.22
2022-08-17T19:28:27.920Z,98978.72
2022-08-17T19:30:59.575Z,98981.81
2022-08-17T19:33:27.336Z,98983.34
2022-08-17T19:36:27.296Z,98982.78
2022-08-17T19:39:06.008Z,98979.88
2022-08-17T19:41:50.014Z,98986.00
2022-08-17T19:44:46.538Z,98971.56
2022-08-17T19:47:30.438Z,98983.75
2022-08-17T19:50:27.393Z,98969.94
2022-08-17T19:53:36.723Z,98965.78
2022-08-17T19:56:24.357Z,98962.53
2022-08-17T19:59:18.949Z,98969.34
2022-08-17T20:01:53.969Z,98966.25
2022-08-17T20:04:33.109Z,98961.09
2022-08-17T20:07:08.214Z,98950.94
2022-08-17T20:09:43.763Z,98952.63
2022-08-17T20:12:17.603Z,98955.13
2022-08-17T20:15:04.869Z,98959.63
2022-08-17T20:17:37.367Z,98956.41
2022-08-17T20:20:54.762Z,98953.13
2022-08-17T20:23:31.282Z,98956.25
2022-08-17T20:26:07.564Z,98964.56
2022-08-17T20:28:39.016Z,98964.22
2022-08-17T20:31:45.574Z,98962.22
2022-08-17T20:34:37.090Z,98966.06
2022-08-17T20:37:25.070Z,98964.16
2022-08-17T20:39:52.794Z,98956.19
2022-08-17T20:42:19.797Z,98956.31
2022-08-17T20:44:58.072Z,98962.47
2022-08-17T20:48:00.863Z,98965.69
2022-08-17T20:50:47.092Z,98968.19
2022-08-17T20:53:55.073Z,98968.69
2022-08-17T20:56:43.890Z,98977.78
2022-08-17T20:59:26.143Z,98972.53
2022-08-17T21:02:08.946Z,98968.03
2022-08-17T21:04:52.840Z,98990.28
2022-08-17T21:07:42.579Z,98996.44
2022-08-17T21:10:27.711Z,98998.75
2022-08-17T21:13:28.307Z,99012.63
2022-08-17T21:16:10.283Z,99016.56
2022-08-17T21:19:00.715Z,99008.34
2022-08-17T21:21:37.719Z,99009.22
2022-08-17T21:24:22.243Z,99007.75
2022-08-17T21:27:25.026Z,99006.16
2022-08-17T21:30:30.525Z,99021.84
2022-08-17T21:33:25.570Z,99028.38
2022-08-17T21:36:16.105Z,99043.47
2022-08-17T21:38:57.004Z,99041.03
2022-08-17T21:41:27.433Z,99037.97
2022-08-17T21:44:02.869Z,99030.63
2022-08-17T21:46:31.617Z,99033.94
2022-08-17T21:49:13.603Z,99033.09
2022-08-17T21:51:47.315Z,99044.13
2022-08-17T21:54:35.802Z,99036.03
2022-08-17T21:57:06.072Z,99037.78
2022-08-17T21:59:36.056Z,99023.31
2022-08-17T22:02:05.770Z,99020.13
2022-08-17T22:04:37.171Z,99024.06
2022-08-17T22:07:11.385Z,99018.31
2022-08-17T22:09:43.285Z,99011.09
2022-08-17T22:12:18.284Z,98998.81
2022-08-17T22:15:00.685Z,99016.09
2022-08-17T22:17:36.979Z,99004.97
2022-08-17T22:20:09.538Z,99012.34
2022-08-17T22:23:18.292Z,99016.31
2022-08-17T22:26:06.126Z,99020.38
2022-08-17T22:31:58.519Z,99016.94
2022-08-17T22:34:35.696Z,99018.78
2022-08-17T22:37:28.383Z,99022.22
2022-08-17T22:39:59.471Z,99022.09
2022-08-17T22:42:28.620Z,99020.38
2022-08-17T22:44:55.666Z,99018.66
2022-08-17T22:47:40.965Z,99017.19
2022-08-17T22:50:37.447Z,98996.38
2022-08-17T22:53:34.355Z,98993.44
2022-08-17T22:56:19.964Z,98996.59
2022-08-17T22:59:13.314Z,98994.53
2022-08-17T23:01:43.560Z,98981.19
2022-08-17T23:04:29.323Z,98986.06
2022-08-17T23:06:56.302Z,98986.81
2022-08-17T23:09:23.665Z,98984.09
2022-08-17T23:11:58.717Z,98978.00
2022-08-17T23:14:31.565Z,98967.97
2022-08-17T23:16:59.443Z,98969.53
2022-08-17T23:19:27.682Z,98964.88
2022-08-17T23:21:56.379Z,98965.63
2022-08-17T23:24:27.115Z,98968.19
2022-08-17T23:26:57.350Z,98967.94
2022-08-17T23:29:29.532Z,98968.81
2022-08-17T23:31:59.988Z,98967.22
2022-08-17T23:34:28.680Z,98967.56
2022-08-17T23:36:58.078Z,98969.38
2022-08-17T23:39:28.404Z,98959.81
2022-08-17T23:41:58.410Z,98958.84
2022-08-17T23:44:26.257Z,98962.16
2022-08-17T23:46:56.504Z,98960.25
2022-08-17T23:49:25.119Z,98955.88
2022-08-17T23:51:54.850Z,98960.63
2022-08-17T23:54:26.606Z,98953.25
2022-08-17T23:56:53.940Z,98960.72
2022-08-17T23:59:23.140Z,98953.34
